createdAt,value
2022-12-13T00:02:25.207Z,15.32
2022-12-13T00:04:51.566Z,15.75
2022-12-13T00:07:18.092Z,16.67
2022-12-13T00:09:44.434Z,17.33
2022-12-13T00:12:10.795Z,17.42
2022-12-13T00:14:37.079Z,16.02
2022-12-13T00:17:03.395Z,15.60
2022-12-13T00:19:29.833Z,16.20
2022-12-13T00:21:56.224Z,15.13
2022-12-13T00:24:22.571Z,16.40
2022-12-13T00:26:48.870Z,16.45
2022-12-13T00:29:15.158Z,17.88
2022-12-13T00:32:00.354Z,15.45
2022-12-13T00:34:27.094Z,16.10
2022-12-13T00:36:53.383Z,16.10
2022-12-13T00:39:19.642Z,16.13
2022-12-13T00:41:45.975Z,15.52
2022-12-13T00:44:12.382Z,15.98
2022-12-13T00:46:38.670Z,14.50
2022-12-13T00:49:04.994Z,16.00
2022-12-13T00:51:31.291Z,15.68
2022-12-13T00:53:57.570Z,14.93
2022-12-13T00:56:23.818Z,14.68
2022-12-13T00:58:52.138Z,15.80
2022-12-13T01:01:18.993Z,14.63
2022-12-13T01:03:45.305Z,16.23
2022-12-13T01:06:16.023Z,16.17
2022-12-13T01:08:42.888Z,15.20
2022-12-13T01:11:09.156Z,17.50
2022-12-13T01:13:35.500Z,15.85
2022-12-13T01:16:01.792Z,15.10
2022-12-13T01:18:28.038Z,16.02
2022-12-13T01:20:54.349Z,15.45
2022-12-13T01:23:20.628Z,13.38
2022-12-13T01:25:46.868Z,14.15
2022-12-13T01:28:13.197Z,14.55
2022-12-13T01:30:39.537Z,14.43
2022-12-13T01:33:14.393Z,14.85
2022-12-13T01:35:41.092Z,14.98
2022-12-13T01:38:15.484Z,14.75
2022-12-13T01:40:42.575Z,14.38
2022-12-13T01:43:14.459Z,13.85
2022-12-13T01:45:41.271Z,15.10
2022-12-13T01:48:07.636Z,14.93
2022-12-13T01:50:34.019Z,14.77
2022-12-13T01:53:00.427Z,13.38
2022-12-13T01:55:26.731Z,13.98
2022-12-13T01:57:53.030Z,14.82
2022-12-13T02:00:19.323Z,14.00
2022-12-13T02:02:45.734Z,14.52
2022-12-13T02:05:12.138Z,13.43
2022-12-13T02:07:38.971Z,14.40
2022-12-13T02:10:07.478Z,13.52
2022-12-13T02:12:33.750Z,13.43
2022-12-13T02:15:12.229Z,14.55
2022-12-13T02:17:45.204Z,14.70
2022-12-13T02:20:13.712Z,13.68
2022-12-13T02:22:48.897Z,14.75
2022-12-13T02:25:15.407Z,14.23
2022-12-13T02:27:42.457Z,13.85
2022-12-13T02:30:09.691Z,13.82
2022-12-13T02:32:35.959Z,13.57
2022-12-13T02:35:02.272Z,13.55
2022-12-13T02:37:28.556Z,15.60
2022-12-13T02:39:54.875Z,13.27
2022-12-13T02:42:21.826Z,14.77
2022-12-13T02:44:48.495Z,14.43
2022-12-13T02:47:22.268Z,14.05
2022-12-13T02:49:48.979Z,14.27
2022-12-13T02:52:15.244Z,12.93
2022-12-13T02:54:48.976Z,14.27
2022-12-13T02:57:15.332Z,13.13
2022-12-13T02:59:48.053Z,14.90
2022-12-13T03:02:30.805Z,13.23
2022-12-13T03:04:58.066Z,13.50
2022-12-13T03:07:24.386Z,13.57
2022-12-13T03:09:50.707Z,12.75
2022-12-13T03:12:16.990Z,13.32
2022-12-13T03:14:43.433Z,14.70
2022-12-13T03:17:09.736Z,14.55
2022-12-13T03:19:36.120Z,13.48
2022-12-13T03:22:02.464Z,15.77
2022-12-13T03:24:28.804Z,14.90
2022-12-13T03:26:55.078Z,14.68
2022-12-13T03:29:24.358Z,14.77
2022-12-13T03:31:51.251Z,15.15
2022-12-13T03:34:22.485Z,14.30
2022-12-13T03:36:49.435Z,14.90
2022-12-13T03:39:15.715Z,13.43
2022-12-13T03:41:41.995Z,14.85
2022-12-13T03:44:08.298Z,14.00
2022-12-13T03:46:34.812Z,15.07
2022-12-13T03:49:01.235Z,14.07
2022-12-13T03:51:27.673Z,15.55
2022-12-13T03:53:53.919Z,14.90
2022-12-13T03:56:20.278Z,14.57
2022-12-13T03:58:46.646Z,13.57
2022-12-13T04:01:12.989Z,15.20
2022-12-13T04:03:39.316Z,15.88
2022-12-13T04:06:05.645Z,13.57
2022-12-13T04:08:32.087Z,14.50
2022-12-13T04:10:58.579Z,14.23
2022-12-13T04:13:24.918Z,16.20
2022-12-13T04:15:51.319Z,13.70
2022-12-13T04:18:17.798Z,14.57
2022-12-13T04:20:44.181Z,13.68
2022-12-13T04:23:10.793Z,14.80
2022-12-13T04:25:37.265Z,15.20
2022-12-13T04:28:03.700Z,14.50
2022-12-13T04:30:29.999Z,17.08
2022-12-13T04:32:56.428Z,14.95
2022-12-13T04:35:22.684Z,14.40
2022-12-13T04:37:48.985Z,15.73
2022-12-13T04:40:15.547Z,16.23
2022-12-13T04:42:48.264Z,14.73
2022-12-13T04:45:20.716Z,14.60
2022-12-13T04:47:47.023Z,14.70
2022-12-13T04:50:13.491Z,16.15
2022-12-13T04:52:39.732Z,14.98
2022-12-13T04:55:06.121Z,15.15
2022-12-13T04:57:32.508Z,15.82
2022-12-13T04:59:58.815Z,13.98
2022-12-13T05:02:25.528Z,15.23
2022-12-13T05:04:54.355Z,15.18
2022-12-13T05:07:20.931Z,15.07
2022-12-13T05:09:47.275Z,14.82
2022-12-13T05:12:22.416Z,13.73
2022-12-13T05:14:49.379Z,15.80
2022-12-13T05:17:15.647Z,14.85
2022-12-13T05:19:41.919Z,16.67
2022-12-13T05:22:08.219Z,15.73
2022-12-13T05:24:34.696Z,16.70
2022-12-13T05:27:01.126Z,16.15
2022-12-13T05:29:27.428Z,15.82
2022-12-13T05:31:53.751Z,16.10
2022-12-13T05:34:20.065Z,17.17
2022-12-13T05:36:46.535Z,14.88
2022-12-13T05:39:28.408Z,14.73
2022-12-13T05:41:55.770Z,16.48
2022-12-13T05:44:28.447Z,15.88
2022-12-13T05:46:54.729Z,16.95
2022-12-13T05:49:21.192Z,16.08
2022-12-13T05:51:47.628Z,14.57
2022-12-13T05:54:13.917Z,15.23
2022-12-13T05:56:40.255Z,15.18
2022-12-13T05:59:06.744Z,14.43
2022-12-13T06:01:33.020Z,16.92
2022-12-13T06:03:59.397Z,15.88
2022-12-13T06:06:25.655Z,16.23
2022-12-13T06:08:52.158Z,16.77
2022-12-13T06:11:21.582Z,15.80
2022-12-13T06:14:00.740Z,16.48
2022-12-13T06:16:27.553Z,17.58
2022-12-13T06:19:01.273Z,16.42
2022-12-13T06:21:43.394Z,16.20
2022-12-13T06:24:12.039Z,14.48
2022-12-13T06:26:38.475Z,15.02
2022-12-13T06:29:04.751Z,17.05
2022-12-13T06:31:31.042Z,15.50
2022-12-13T06:33:57.457Z,15.88
2022-12-13T06:36:23.744Z,16.70
2022-12-13T06:38:50.034Z,16.30
2022-12-13T06:41:16.352Z,16.35
2022-12-13T06:43:42.687Z,16.17
2022-12-13T06:46:09.217Z,18.00
2022-12-13T06:48:35.663Z,16.35
2022-12-13T06:51:01.972Z,16.80
2022-12-13T06:53:28.225Z,15.63
2022-12-13T06:55:54.584Z,17.40
2022-12-13T06:58:20.904Z,16.98
2022-12-13T07:00:48.923Z,18.13
2022-12-13T07:03:16.322Z,18.15
2022-12-13T07:05:43.455Z,16.23
2022-12-13T07:08:10.098Z,17.35
2022-12-13T07:10:36.507Z,17.55
2022-12-13T07:13:02.796Z,16.67
2022-12-13T07:15:29.259Z,16.98
2022-12-13T07:17:55.556Z,18.58
2022-12-13T07:20:21.952Z,16.88
2022-12-13T07:22:52.340Z,16.95
2022-12-13T07:25:27.843Z,17.52
2022-12-13T07:27:55.026Z,17.58
2022-12-13T07:30:28.310Z,18.17
2022-12-13T07:32:54.764Z,17.80
2022-12-13T07:35:21.127Z,17.02
2022-12-13T07:37:47.407Z,15.75
2022-12-13T07:40:13.688Z,17.23
2022-12-13T07:42:39.980Z,18.02
2022-12-13T07:45:07.360Z,19.42
2022-12-13T07:47:36.962Z,19.90
2022-12-13T07:50:03.721Z,17.48
2022-12-13T07:52:30.089Z,17.00
2022-12-13T07:54:56.370Z,18.35
2022-12-13T07:57:22.674Z,17.00
2022-12-13T07:59:48.944Z,17.48
2022-12-13T08:02:15.384Z,20.35
2022-12-13T08:04:41.750Z,16.33
2022-12-13T08:07:08.103Z,19.80
2022-12-13T08:09:34.728Z,18.73
2022-12-13T08:12:01.245Z,16.65
2022-12-13T08:14:27.910Z,18.40
2022-12-13T08:16:54.249Z,20.25
2022-12-13T08:19:20.620Z,16.70
2022-12-13T08:21:56.278Z,17.92
2022-12-13T08:24:23.962Z,17.85
2022-12-13T08:26:50.203Z,18.27
2022-12-13T08:29:23.322Z,19.35
2022-12-13T08:32:01.428Z,16.17
2022-12-13T08:34:28.272Z,22.70
2022-12-13T08:37:01.572Z,36.25
2022-12-13T08:39:29.779Z,24.25
2022-12-13T08:41:56.136Z,18.15
2022-12-13T08:44:22.440Z,20.13
2022-12-13T08:46:48.772Z,22.00
2022-12-13T08:49:15.149Z,18.75
2022-12-13T08:51:41.613Z,21.70
2022-12-13T08:54:10.544Z,20.65
2022-12-13T08:56:37.713Z,20.42
2022-12-13T08:59:04.016Z,19.23
2022-12-13T09:01:30.400Z,21.88
2022-12-13T09:03:56.688Z,19.67
2022-12-13T09:06:23.017Z,22.23
2022-12-13T09:08:51.871Z,20.23
2022-12-13T09:11:22.444Z,22.85
2022-12-13T09:14:01.292Z,18.73
2022-12-13T09:16:28.173Z,20.20
2022-12-13T09:19:24.659Z,20.70
2022-12-13T09:21:49.214Z,21.63
2022-12-13T09:24:24.645Z,21.73
2022-12-13T09:26:57.265Z,22.58
2022-12-13T09:29:23.883Z,21.80
2022-12-13T09:31:53.271Z,24.17
2022-12-13T09:34:20.026Z,20.15
2022-12-13T09:36:46.527Z,21.42
2022-12-13T09:39:12.841Z,20.55
2022-12-13T09:41:41.008Z,22.05
2022-12-13T09:44:07.569Z,21.38
2022-12-13T09:46:53.964Z,24.20
2022-12-13T09:49:27.266Z,21.58
2022-12-13T09:52:11.786Z,22.65
2022-12-13T09:54:49.078Z,19.90
2022-12-13T09:57:15.725Z,21.38
2022-12-13T10:00:01.151Z,20.70
2022-12-13T10:02:28.664Z,23.77
2022-12-13T10:04:55.038Z,29.55
2022-12-13T10:07:27.842Z,29.13
2022-12-13T10:09:54.164Z,33.13
2022-12-13T10:12:20.532Z,36.92
2022-12-13T10:14:46.905Z,40.85
2022-12-13T10:17:13.349Z,39.15
2022-12-13T10:19:39.641Z,46.67
2022-12-13T10:22:05.985Z,50.00
2022-12-13T10:24:37.056Z,45.15
2022-12-13T10:27:04.170Z,56.70
2022-12-13T10:29:30.483Z,56.13
2022-12-13T10:34:37.280Z,46.63
2022-12-13T10:37:05.476Z,42.45
2022-12-13T10:39:31.718Z,43.53
2022-12-13T10:41:58.166Z,38.97
2022-12-13T10:44:24.436Z,42.67
2022-12-13T10:46:50.814Z,39.33
2022-12-13T10:49:17.062Z,43.10
2022-12-13T10:51:43.347Z,43.17
2022-12-13T10:54:09.698Z,40.28
2022-12-13T10:56:36.030Z,42.30
2022-12-13T10:59:02.339Z,43.03
2022-12-13T11:01:28.690Z,36.67
2022-12-13T11:03:55.385Z,36.60
2022-12-13T11:06:28.970Z,40.15
2022-12-13T11:08:55.419Z,34.55
2022-12-13T11:16:51.841Z,34.17
2022-12-13T11:19:18.310Z,35.05
2022-12-13T11:21:48.917Z,32.03
2022-12-13T11:24:15.323Z,30.23
2022-12-13T11:26:53.872Z,34.67
2022-12-13T11:31:47.052Z,30.75
2022-12-13T11:34:13.320Z,32.65
2022-12-13T11:36:39.856Z,31.65
2022-12-13T11:39:06.234Z,32.28
2022-12-13T11:41:33.090Z,33.10
2022-12-13T11:43:59.841Z,28.55
2022-12-13T11:46:27.357Z,31.13
2022-12-13T11:48:53.689Z,26.63
2022-12-13T11:51:20.364Z,32.60
2022-12-13T11:53:48.830Z,25.27
2022-12-13T11:56:15.844Z,29.15
2022-12-13T12:01:28.623Z,27.85
2022-12-13T12:03:55.108Z,28.60
2022-12-13T12:06:22.499Z,26.48
2022-12-13T12:08:49.387Z,26.67
2022-12-13T12:11:16.078Z,27.60
2022-12-13T12:13:50.585Z,26.85
2022-12-13T12:16:18.251Z,24.80
2022-12-13T12:18:44.767Z,25.13
2022-12-13T12:21:11.154Z,25.40
2022-12-13T12:23:44.347Z,27.30
2022-12-13T12:26:12.867Z,25.42
2022-12-13T12:28:43.976Z,23.67
2022-12-13T12:31:11.120Z,25.20
2022-12-13T12:33:37.576Z,26.60
2022-12-13T12:36:04.149Z,25.35
2022-12-13T12:38:30.610Z,22.35
2022-12-13T12:43:43.402Z,23.38
2022-12-13T12:46:09.855Z,22.55
2022-12-13T12:48:56.608Z,20.98
2022-12-13T12:51:22.489Z,22.42
2022-12-13T12:53:50.831Z,22.17
2022-12-13T12:56:17.446Z,21.52
2022-12-13T12:58:43.870Z,20.33
2022-12-13T13:01:10.338Z,23.70
2022-12-13T13:03:36.990Z,23.30
2022-12-13T13:06:05.637Z,20.20
2022-12-13T13:08:32.034Z,22.02
2022-12-13T13:11:01.884Z,21.75
2022-12-13T13:13:33.222Z,21.02
2022-12-13T13:16:00.192Z,23.05
2022-12-13T13:18:26.964Z,18.55
2022-12-13T13:20:53.763Z,19.90
2022-12-13T13:23:39.482Z,19.05
2022-12-13T13:26:26.078Z,21.17
2022-12-13T13:28:53.055Z,19.30
2022-12-13T13:31:19.527Z,20.13
2022-12-13T13:36:14.370Z,18.42
2022-12-13T13:38:55.615Z,18.88
2022-12-13T13:41:28.145Z,17.98
2022-12-13T13:43:54.594Z,19.45
2022-12-13T13:46:20.934Z,17.75
2022-12-13T13:48:47.382Z,17.35
2022-12-13T13:51:13.834Z,19.27
2022-12-13T13:53:40.248Z,17.60
2022-12-13T13:56:06.639Z,18.27
2022-12-13T13:58:32.983Z,18.98
2022-12-13T14:00:59.333Z,17.83
2022-12-13T14:03:33.368Z,17.45
2022-12-13T14:06:00.800Z,16.70
2022-12-13T14:08:27.251Z,17.08
2022-12-13T14:10:53.855Z,19.50
2022-12-13T14:13:20.266Z,17.40
2022-12-13T14:15:49.579Z,18.58
2022-12-13T14:18:21.464Z,18.05
2022-12-13T14:20:48.331Z,18.00
2022-12-13T14:23:21.749Z,16.15
2022-12-13T14:25:52.617Z,20.00
2022-12-13T14:28:19.414Z,17.20
2022-12-13T14:30:47.726Z,16.45
2022-12-13T14:33:23.998Z,16.40
2022-12-13T14:35:50.655Z,16.65
2022-12-13T14:38:17.309Z,17.90
2022-12-13T14:40:43.744Z,16.45
2022-12-13T14:43:10.086Z,16.95
2022-12-13T14:48:28.265Z,16.20
2022-12-13T14:50:56.081Z,14.95
2022-12-13T14:53:22.859Z,16.08
2022-12-13T14:55:49.627Z,15.15
2022-12-13T14:58:16.002Z,17.98
2022-12-13T15:00:42.531Z,15.13
2022-12-13T15:03:12.212Z,15.63
2022-12-13T15:05:38.650Z,14.82
2022-12-13T15:08:10.385Z,16.35
2022-12-13T15:10:38.263Z,15.10
2022-12-13T15:13:04.570Z,15.13
2022-12-13T15:15:30.949Z,16.42
2022-12-13T15:17:57.400Z,16.58
2022-12-13T15:20:23.805Z,15.23
2022-12-13T15:22:50.307Z,16.92
2022-12-13T15:25:16.676Z,15.77
2022-12-13T15:27:43.008Z,15.30
2022-12-13T15:30:15.007Z,15.18
2022-12-13T15:32:41.376Z,16.08
2022-12-13T15:35:07.740Z,16.75
2022-12-13T15:37:34.090Z,15.13
2022-12-13T15:40:02.440Z,14.25
2022-12-13T15:42:29.020Z,17.30
2022-12-13T15:44:55.389Z,16.35
2022-12-13T15:47:28.415Z,15.27
2022-12-13T15:49:55.637Z,14.95
2022-12-13T15:52:21.978Z,14.23
2022-12-13T15:54:48.324Z,15.02
2022-12-13T15:57:14.700Z,13.38
2022-12-13T15:59:41.184Z,14.80
2022-12-13T16:02:07.666Z,14.43
2022-12-13T16:04:34.295Z,13.98
2022-12-13T16:07:00.836Z,15.40
2022-12-13T16:09:27.182Z,14.00
2022-12-13T16:17:16.422Z,13.75
2022-12-13T16:19:42.858Z,14.40
2022-12-13T16:22:09.388Z,13.57
2022-12-13T16:24:35.832Z,13.23
2022-12-13T16:27:08.171Z,14.10
2022-12-13T16:29:35.197Z,15.35
2022-12-13T16:32:07.932Z,13.60
2022-12-13T16:34:35.291Z,12.95
2022-12-13T16:37:01.694Z,13.73
2022-12-13T16:39:28.004Z,14.38
2022-12-13T16:41:54.306Z,12.40
2022-12-13T16:44:20.720Z,14.45
2022-12-13T16:47:16.167Z,13.73
2022-12-13T16:49:33.497Z,15.80
2022-12-13T16:51:59.907Z,13.57
2022-12-13T16:54:26.332Z,14.52
2022-12-13T16:56:52.646Z,14.18
2022-12-13T16:59:19.131Z,15.13
2022-12-13T17:01:45.456Z,14.93
2022-12-13T17:04:15.165Z,13.48
2022-12-13T17:06:45.817Z,13.93
2022-12-13T17:09:13.299Z,14.18
2022-12-13T17:11:39.661Z,16.48
2022-12-13T17:14:06.000Z,15.63
2022-12-13T17:16:32.375Z,13.63
2022-12-13T17:18:58.780Z,14.75
2022-12-13T17:21:25.111Z,15.18
2022-12-13T17:23:51.559Z,15.10
2022-12-13T17:26:17.894Z,14.68
2022-12-13T17:28:44.359Z,15.23
2022-12-13T17:31:10.742Z,14.25
2022-12-13T17:33:37.193Z,14.30
2022-12-13T17:36:03.536Z,14.50
2022-12-13T17:38:30.024Z,14.52
2022-12-13T17:40:56.451Z,13.82
2022-12-13T17:43:33.062Z,12.25
2022-12-13T17:46:01.003Z,14.52
2022-12-13T17:48:28.449Z,15.18
2022-12-13T17:50:56.244Z,13.80
2022-12-13T17:53:22.900Z,15.00
2022-12-13T17:55:49.480Z,15.43
2022-12-13T17:58:15.819Z,14.38
2022-12-13T18:00:42.156Z,15.05
2022-12-13T18:03:08.522Z,13.50
2022-12-13T18:05:34.897Z,13.77
2022-12-13T18:08:01.374Z,13.05
2022-12-13T18:10:30.130Z,12.52
2022-12-13T18:12:56.772Z,14.27
2022-12-13T18:15:23.138Z,14.18
2022-12-13T18:18:10.717Z,13.55
2022-12-13T18:20:36.174Z,13.50
2022-12-13T18:23:02.596Z,13.50
2022-12-13T18:25:28.901Z,14.07
2022-12-13T18:28:00.598Z,13.35
2022-12-13T18:30:27.502Z,13.73
2022-12-13T18:32:53.800Z,14.10
2022-12-13T18:35:20.197Z,13.25
2022-12-13T18:37:46.951Z,13.40
2022-12-13T18:40:13.230Z,13.68
2022-12-13T18:42:45.170Z,12.90
2022-12-13T18:45:11.432Z,14.10
2022-12-13T18:47:37.758Z,12.27
2022-12-13T18:50:04.122Z,14.38
2022-12-13T18:52:30.488Z,12.10
2022-12-13T18:54:56.876Z,13.18
2022-12-13T18:57:23.184Z,13.05
2022-12-13T18:59:54.354Z,13.88
2022-12-13T19:02:21.412Z,12.95
2022-12-13T19:04:55.514Z,14.05
2022-12-13T19:07:22.114Z,13.82
2022-12-13T19:09:54.696Z,15.60
2022-12-13T19:12:21.608Z,14.10
2022-12-13T19:14:54.445Z,13.20
2022-12-13T19:17:21.363Z,13.13
2022-12-13T19:19:48.394Z,13.93
2022-12-13T19:22:14.924Z,12.93
2022-12-13T19:24:41.530Z,14.32
2022-12-13T19:27:07.824Z,13.75
2022-12-13T19:29:36.960Z,20.88
2022-12-13T19:32:03.691Z,82.85
2022-12-13T19:34:30.636Z,74.20
2022-12-13T19:37:00.333Z,79.53
2022-12-13T19:39:31.080Z,94.53
2022-12-13T19:41:57.410Z,79.35
2022-12-13T19:44:23.909Z,73.97
2022-12-13T19:46:50.558Z,63.75
2022-12-13T19:49:18.053Z,109.22
2022-12-13T19:51:44.334Z,179.75
2022-12-13T19:54:10.729Z,168.20
2022-12-13T19:56:37.216Z,156.98
2022-12-13T19:59:03.625Z,148.35
2022-12-13T20:01:30.078Z,141.48
2022-12-13T20:03:56.698Z,138.68
2022-12-13T20:06:23.222Z,133.73
2022-12-13T20:08:49.633Z,119.95
2022-12-13T20:11:16.270Z,115.20
2022-12-13T20:16:33.280Z,96.95
2022-12-13T20:18:59.912Z,93.85
2022-12-13T20:21:26.661Z,221.88
2022-12-13T20:23:54.332Z,231.85
2022-12-13T20:26:20.819Z,218.63
2022-12-13T20:28:47.357Z,211.27
2022-12-13T20:33:58.066Z,175.93
2022-12-13T20:36:27.661Z,164.70
2022-12-13T20:38:54.352Z,156.20
2022-12-13T20:41:22.736Z,147.30
2022-12-13T20:43:49.271Z,134.57
2022-12-13T20:46:17.837Z,135.60
2022-12-13T20:48:44.387Z,179.93
2022-12-13T20:51:10.763Z,137.50
2022-12-13T20:53:37.102Z,103.07
2022-12-13T20:56:03.538Z,94.65
2022-12-13T20:58:39.617Z,175.57
2022-12-13T21:01:06.390Z,216.95
2022-12-13T21:03:32.933Z,191.27
2022-12-13T21:05:59.365Z,173.52
2022-12-13T21:08:26.263Z,170.95
2022-12-13T21:10:52.675Z,156.85
2022-12-13T21:16:10.499Z,137.95
2022-12-13T21:18:37.244Z,128.25
2022-12-13T21:21:03.772Z,123.22
2022-12-13T21:23:30.274Z,115.22
2022-12-13T21:25:56.711Z,108.32
2022-12-13T21:28:23.187Z,104.32
2022-12-13T21:30:49.668Z,100.10
2022-12-13T21:33:16.760Z,96.03
2022-12-13T21:35:43.332Z,90.03
2022-12-13T21:38:11.018Z,85.53
2022-12-13T21:40:37.603Z,85.78
2022-12-13T21:43:04.034Z,80.57
2022-12-13T21:45:30.561Z,127.25
2022-12-13T21:47:57.068Z,256.10
2022-12-13T21:50:23.514Z,215.27
2022-12-13T21:52:50.584Z,197.70
2022-12-13T21:55:38.303Z,238.68
2022-12-13T21:58:07.674Z,265.45
2022-12-13T22:00:34.784Z,258.27
2022-12-13T22:03:01.220Z,252.90
2022-12-13T22:05:27.644Z,229.52
2022-12-13T22:07:54.363Z,268.52
2022-12-13T22:10:20.841Z,359.60
2022-12-13T22:12:47.633Z,334.95
2022-12-13T22:15:15.199Z,310.00
2022-12-13T22:17:41.614Z,309.27
2022-12-13T22:20:08.128Z,300.95
2022-12-13T22:22:34.839Z,309.08
2022-12-13T22:27:52.440Z,314.98
2022-12-13T22:30:22.237Z,313.77
2022-12-13T22:32:50.968Z,484.73
2022-12-13T22:35:17.672Z,567.42
2022-12-13T22:37:44.064Z,621.58
2022-12-13T22:40:16.380Z,606.47
2022-12-13T22:42:43.065Z,584.83
2022-12-13T22:45:19.444Z,581.58
2022-12-13T22:47:55.735Z,609.65
2022-12-13T22:50:27.518Z,642.38
2022-12-13T22:52:54.361Z,638.97
2022-12-13T22:55:21.082Z,639.75
2022-12-13T22:57:48.718Z,637.80
2022-12-13T23:00:15.519Z,622.67
2022-12-13T23:02:42.665Z,606.90
2022-12-13T23:05:09.271Z,595.58
2022-12-13T23:07:36.383Z,583.20
2022-12-13T23:10:03.179Z,575.90
2022-12-13T23:12:29.888Z,572.08
2022-12-13T23:14:56.452Z,563.10
2022-12-13T23:17:23.527Z,541.83
2022-12-13T23:19:53.671Z,540.15
2022-12-13T23:22:20.346Z,522.88
2022-12-13T23:24:46.873Z,529.92
2022-12-13T23:27:13.362Z,519.58
2022-12-13T23:29:40.036Z,509.42
2022-12-13T23:32:06.515Z,508.00
2022-12-13T23:34:32.930Z,500.42
2022-12-13T23:36:59.454Z,503.13
2022-12-13T23:39:25.846Z,485.25
2022-12-13T23:41:52.225Z,472.85
2022-12-13T23:44:19.008Z,469.85
2022-12-13T23:46:48.545Z,461.40
2022-12-13T23:49:15.518Z,453.85
2022-12-13T23:51:41.943Z,444.77
2022-12-13T23:54:08.375Z,436.48
2022-12-13T23:56:34.795Z,427.02
2022-12-13T23:59:01.371Z,422.08
